createdAt,value
2018-07-15T00:02:22.108Z,93592.48
2018-07-15T00:04:50.133Z,93593.19
2018-07-15T00:07:18.324Z,93595.80
2018-07-15T00:09:46.419Z,93596.88
2018-07-15T00:12:14.478Z,93587.36
2018-07-15T00:14:42.564Z,93583.92
2018-07-15T00:17:10.555Z,93580.93
2018-07-15T00:19:38.614Z,93579.39
2018-07-15T00:22:06.652Z,93583.09
2018-07-15T00:24:34.649Z,93581.30
2018-07-15T00:27:02.677Z,93582.13
2018-07-15T00:29:30.830Z,93585.92
2018-07-15T00:31:58.855Z,93588.55
2018-07-15T00:34:26.939Z,93594.14
2018-07-15T00:36:55.021Z,93591.16
2018-07-15T00:39:23.085Z,93592.09
2018-07-15T00:41:51.172Z,93591.16
2018-07-15T00:44:19.150Z,93586.03
2018-07-15T00:46:47.094Z,93581.88
2018-07-15T00:49:15.119Z,93584.71
2018-07-15T00:51:43.100Z,93587.00
2018-07-15T00:54:11.170Z,93582.36
2018-07-15T00:56:39.216Z,93588.03
2018-07-15T00:59:07.368Z,93575.56
2018-07-15T01:01:35.408Z,93569.03
2018-07-15T01:04:03.460Z,93566.39
2018-07-15T01:06:31.604Z,93571.77
2018-07-15T01:08:59.670Z,93566.53
2018-07-15T01:11:27.670Z,93563.77
2018-07-15T01:13:55.730Z,93554.02
2018-07-15T01:16:24.707Z,93558.80
2018-07-15T01:18:52.686Z,93557.23
2018-07-15T01:21:20.740Z,93549.98
2018-07-15T01:23:48.732Z,93546.17
2018-07-15T01:26:16.736Z,93542.50
2018-07-15T01:28:44.900Z,93541.32
2018-07-15T01:31:12.884Z,93546.19
2018-07-15T01:33:41.014Z,93544.87
2018-07-15T01:36:09.051Z,93541.53
2018-07-15T01:38:37.085Z,93535.13
2018-07-15T01:41:05.198Z,93535.33
2018-07-15T01:43:33.247Z,93542.70
2018-07-15T01:46:01.258Z,93536.30
2018-07-15T01:48:29.259Z,93536.64
2018-07-15T01:50:57.356Z,93537.45
2018-07-15T01:53:25.385Z,93534.10
2018-07-15T01:55:53.483Z,93535.06
2018-07-15T01:58:21.679Z,93536.77
2018-07-15T02:00:49.650Z,93543.48
2018-07-15T02:03:17.767Z,93540.63
2018-07-15T02:05:45.905Z,93549.42
2018-07-15T02:08:14.038Z,93554.94
2018-07-15T02:10:42.056Z,93554.83
2018-07-15T02:13:10.140Z,93553.88
2018-07-15T02:15:38.213Z,93556.70
2018-07-15T02:18:06.232Z,93558.23
2018-07-15T02:20:34.261Z,93556.47
2018-07-15T02:23:02.326Z,93560.84
2018-07-15T02:25:30.393Z,93563.45
2018-07-15T02:27:58.515Z,93567.39
2018-07-15T02:30:26.510Z,93566.64
2018-07-15T02:32:54.545Z,93566.01
2018-07-15T02:35:22.702Z,93564.58
2018-07-15T02:37:50.869Z,93561.37
2018-07-15T02:40:18.899Z,93563.16
2018-07-15T02:42:47.144Z,93561.48
2018-07-15T02:45:15.275Z,93575.13
2018-07-15T02:47:43.438Z,93571.69
2018-07-15T02:50:11.450Z,93566.95
2018-07-15T02:52:39.544Z,93558.91
2018-07-15T02:55:07.535Z,93556.30
2018-07-15T02:57:36.714Z,93561.03
2018-07-15T03:00:05.361Z,93557.91
2018-07-15T03:02:33.440Z,93556.95
2018-07-15T03:05:01.484Z,93559.70
2018-07-15T03:07:29.576Z,93566.91
2018-07-15T03:09:57.704Z,93566.48
2018-07-15T03:12:25.922Z,93574.58
2018-07-15T03:14:54.485Z,93571.92
2018-07-15T03:17:22.551Z,93576.61
2018-07-15T03:19:50.770Z,93579.20
2018-07-15T03:22:19.234Z,93571.61
2018-07-15T03:24:47.312Z,93574.14
2018-07-15T03:27:15.481Z,93568.50
2018-07-15T03:29:43.588Z,93570.38
2018-07-15T03:32:11.947Z,93572.17
2018-07-15T03:34:40.307Z,93563.08
2018-07-15T03:37:08.782Z,93573.98
2018-07-15T03:39:36.966Z,93565.19
2018-07-15T03:42:05.248Z,93564.97
2018-07-15T03:44:33.320Z,93563.41
2018-07-15T03:47:01.415Z,93565.06
2018-07-15T03:49:29.836Z,93564.80
2018-07-15T03:51:57.937Z,93563.34
2018-07-15T03:54:26.068Z,93561.98
2018-07-15T03:56:54.239Z,93568.70
2018-07-15T03:59:22.508Z,93560.95
2018-07-15T04:01:50.613Z,93568.23
2018-07-15T04:04:18.772Z,93567.58
2018-07-15T04:06:47.032Z,93566.39
2018-07-15T04:09:15.354Z,93558.55
2018-07-15T04:11:43.519Z,93565.34
2018-07-15T04:14:11.919Z,93563.19
2018-07-15T04:16:40.061Z,93561.37
2018-07-15T04:19:08.523Z,93564.34
2018-07-15T04:21:36.845Z,93561.72
2018-07-15T04:24:05.512Z,93562.53
2018-07-15T04:26:34.389Z,93567.66
2018-07-15T04:29:02.666Z,93567.33
2018-07-15T04:31:31.341Z,93568.64
2018-07-15T04:33:59.660Z,93564.87
2018-07-15T04:36:27.972Z,93569.14
2018-07-15T04:38:56.223Z,93581.69
2018-07-15T04:41:24.529Z,93583.29
2018-07-15T04:43:53.175Z,93581.14
2018-07-15T04:46:21.520Z,93571.48
2018-07-15T04:48:49.877Z,93573.66
2018-07-15T04:51:18.101Z,93577.72
2018-07-15T04:53:46.389Z,93570.33
2018-07-15T04:56:14.959Z,93576.44
2018-07-15T04:58:43.397Z,93577.27
2018-07-15T05:01:11.686Z,93579.23
2018-07-15T05:03:40.068Z,93574.77
2018-07-15T05:06:08.446Z,93565.66
2018-07-15T05:08:36.828Z,93568.75
2018-07-15T05:11:05.135Z,93566.98
2018-07-15T05:13:33.159Z,93565.63
2018-07-15T05:16:01.186Z,93567.62
2018-07-15T05:18:29.601Z,93569.53
2018-07-15T05:20:58.590Z,93572.45
2018-07-15T05:23:27.102Z,93570.97
2018-07-15T05:25:55.674Z,93565.99
2018-07-15T05:28:24.109Z,93566.81
2018-07-15T05:30:52.751Z,93558.36
2018-07-15T05:33:21.601Z,93555.64
2018-07-15T05:35:50.090Z,93562.69
2018-07-15T05:38:18.774Z,93559.22
2018-07-15T05:40:47.120Z,93554.76
2018-07-15T05:43:15.484Z,93559.91
2018-07-15T05:45:44.115Z,93557.23
2018-07-15T05:48:12.601Z,93557.73
2018-07-15T05:50:40.790Z,93554.59
2018-07-15T05:53:09.277Z,93560.55
2018-07-15T05:55:37.531Z,93558.41
2018-07-15T05:58:06.165Z,93555.24
2018-07-15T06:00:34.704Z,93566.66
2018-07-15T06:03:03.030Z,93560.70
2018-07-15T06:05:31.438Z,93559.70
2018-07-15T06:08:00.016Z,93557.62
2018-07-15T06:10:28.574Z,93557.02
2018-07-15T06:12:57.144Z,93556.33
2018-07-15T06:15:25.634Z,93546.22
2018-07-15T06:17:54.237Z,93551.71
2018-07-15T06:20:22.935Z,93544.33
2018-07-15T06:22:54.027Z,93551.41
2018-07-15T06:25:22.522Z,93559.29
2018-07-15T06:27:51.193Z,93554.55
2018-07-15T06:30:19.832Z,93554.63
2018-07-15T06:32:52.703Z,93548.34
2018-07-15T06:35:21.553Z,93547.59
2018-07-15T06:37:52.801Z,93548.13
2018-07-15T06:40:22.126Z,93544.09
2018-07-15T06:42:50.681Z,93553.70
2018-07-15T06:45:19.299Z,93548.30
2018-07-15T06:47:51.575Z,93545.99
2018-07-15T06:50:20.505Z,93544.66
2018-07-15T06:52:49.128Z,93543.26
2018-07-15T06:55:19.414Z,93539.24
2018-07-15T06:57:50.325Z,93545.13
2018-07-15T07:00:22.486Z,93544.94
2018-07-15T07:02:51.312Z,93543.83
2018-07-15T07:05:25.473Z,93546.96
2018-07-15T07:07:55.340Z,93543.78
2018-07-15T07:10:25.473Z,93545.85
2018-07-15T07:12:55.598Z,93538.63
2018-07-15T07:15:25.957Z,93534.30
2018-07-15T07:17:56.044Z,93539.29
2018-07-15T07:20:27.666Z,93536.75
2018-07-15T07:22:59.410Z,93542.64
2018-07-15T07:25:38.864Z,93537.20
2018-07-15T07:28:08.403Z,93537.73
2018-07-15T07:30:38.228Z,93530.28
2018-07-15T07:33:07.228Z,93529.70
2018-07-15T07:35:36.372Z,93526.56
2018-07-15T07:38:06.780Z,93528.36
2018-07-15T07:40:35.755Z,93534.75
2018-07-15T07:43:04.517Z,93526.73
2018-07-15T07:45:33.913Z,93524.99
2018-07-15T07:48:07.780Z,93526.47
2018-07-15T07:50:37.357Z,93525.77
2018-07-15T07:53:07.319Z,93528.75
2018-07-15T07:55:43.287Z,93531.45
2018-07-15T07:58:16.715Z,93537.61
2018-07-15T08:00:46.804Z,93524.22
2018-07-15T08:03:23.781Z,93527.64
2018-07-15T08:05:55.174Z,93527.72
2018-07-15T08:08:25.207Z,93527.38
2018-07-15T08:10:57.078Z,93520.76
2018-07-15T08:13:25.856Z,93520.56
2018-07-15T08:15:54.338Z,93519.75
2018-07-15T08:18:22.964Z,93523.35
2018-07-15T08:20:51.616Z,93516.03
2018-07-15T08:23:20.361Z,93517.20
2018-07-15T08:25:49.875Z,93503.31
2018-07-15T08:28:24.130Z,93506.29
2018-07-15T08:31:13.784Z,93499.64
2018-07-15T08:33:46.045Z,93500.63
2018-07-15T08:36:14.963Z,93500.06
2018-07-15T08:38:52.453Z,93501.02
2018-07-15T08:41:21.848Z,93505.31
2018-07-15T08:43:53.611Z,93503.40
2018-07-15T08:46:23.231Z,93496.79
2018-07-15T08:48:53.170Z,93489.06
2018-07-15T08:51:22.454Z,93486.84
2018-07-15T08:53:54.151Z,93488.19
2018-07-15T08:56:25.071Z,93488.92
2018-07-15T08:58:57.051Z,93483.22
2018-07-15T09:01:29.335Z,93489.05
2018-07-15T09:03:58.770Z,93480.67
2018-07-15T09:06:28.183Z,93488.75
2018-07-15T09:08:57.028Z,93489.50
2018-07-15T09:11:30.193Z,93485.12
2018-07-15T09:13:58.582Z,93482.62
2018-07-15T09:16:27.166Z,93474.23
2018-07-15T09:18:55.711Z,93475.27
2018-07-15T09:21:24.846Z,93475.78
2018-07-15T09:23:54.508Z,93469.13
2018-07-15T09:26:23.235Z,93473.77
2018-07-15T09:28:51.811Z,93475.91
2018-07-15T09:31:20.391Z,93476.64
2018-07-15T09:33:48.928Z,93477.31
2018-07-15T09:36:17.442Z,93474.77
2018-07-15T09:38:47.954Z,93474.16
2018-07-15T09:41:16.635Z,93472.27
2018-07-15T09:43:45.220Z,93476.59
2018-07-15T09:46:13.675Z,93465.12
2018-07-15T09:48:42.406Z,93472.26
2018-07-15T09:51:11.982Z,93475.86
2018-07-15T09:53:42.409Z,93461.70
2018-07-15T09:56:13.354Z,93467.06
2018-07-15T09:58:44.663Z,93468.25
2018-07-15T10:01:14.942Z,93466.64
2018-07-15T10:03:43.481Z,93461.66
2018-07-15T10:06:12.560Z,93461.89
2018-07-15T10:08:41.462Z,93462.69
2018-07-15T10:11:10.798Z,93453.81
2018-07-15T10:13:39.101Z,93453.87
2018-07-15T10:16:07.702Z,93449.06
2018-07-15T10:18:36.245Z,93444.86
2018-07-15T10:21:04.648Z,93451.12
2018-07-15T10:23:32.844Z,93442.27
2018-07-15T10:26:01.321Z,93440.52
2018-07-15T10:28:29.544Z,93439.15
2018-07-15T10:30:57.622Z,93440.30
2018-07-15T10:33:25.858Z,93433.34
2018-07-15T10:35:53.972Z,93434.56
2018-07-15T10:38:22.605Z,93428.83
2018-07-15T10:40:51.464Z,93433.42
2018-07-15T10:43:20.100Z,93438.63
2018-07-15T10:45:48.398Z,93437.93
2018-07-15T10:48:16.699Z,93431.81
2018-07-15T10:50:44.849Z,93435.89
2018-07-15T10:53:13.112Z,93429.13
2018-07-15T10:55:41.373Z,93433.31
2018-07-15T10:58:09.692Z,93431.56
2018-07-15T11:00:37.893Z,93429.99
2018-07-15T11:03:06.137Z,93424.68
2018-07-15T11:05:34.418Z,93419.08
2018-07-15T11:08:02.592Z,93413.03
2018-07-15T11:10:30.734Z,93408.18
2018-07-15T11:12:59.112Z,93409.97
2018-07-15T11:15:27.354Z,93408.23
2018-07-15T11:17:55.778Z,93401.37
2018-07-15T11:20:24.071Z,93397.97
2018-07-15T11:22:52.570Z,93400.36
2018-07-15T11:25:21.015Z,93392.89
2018-07-15T11:27:49.499Z,93393.86
2018-07-15T11:30:18.615Z,93393.56
2018-07-15T11:32:48.453Z,93395.09
2018-07-15T11:35:16.915Z,93393.31
2018-07-15T11:37:45.513Z,93383.89
2018-07-15T11:40:15.962Z,93381.77
2018-07-15T11:42:44.484Z,93380.31
2018-07-15T11:45:14.738Z,93381.89
2018-07-15T11:47:47.635Z,93371.27
2018-07-15T11:50:19.176Z,93370.56
2018-07-15T11:52:54.706Z,93367.83
2018-07-15T11:55:28.344Z,93364.39
2018-07-15T11:58:00.671Z,93366.75
2018-07-15T12:00:29.204Z,93370.02
2018-07-15T12:02:57.544Z,93370.77
2018-07-15T12:05:25.927Z,93370.28
2018-07-15T12:07:54.414Z,93359.36
2018-07-15T12:10:22.816Z,93352.27
2018-07-15T12:12:51.512Z,93362.16
2018-07-15T12:15:29.899Z,93355.14
2018-07-15T12:17:58.492Z,93360.94
2018-07-15T12:20:26.778Z,93343.84
2018-07-15T12:22:55.125Z,93347.63
2018-07-15T12:25:23.479Z,93348.91
2018-07-15T12:27:51.798Z,93351.72
2018-07-15T12:30:20.252Z,93354.37
2018-07-15T12:32:48.690Z,93342.19
2018-07-15T12:35:18.584Z,93342.91
2018-07-15T12:37:47.061Z,93340.37
2018-07-15T12:40:15.581Z,93344.84
2018-07-15T12:42:45.495Z,93341.66
2018-07-15T12:45:13.931Z,93342.42
2018-07-15T12:47:42.352Z,93345.53
2018-07-15T12:50:11.273Z,93348.52
2018-07-15T12:52:39.858Z,93340.76
2018-07-15T12:55:08.398Z,93341.58
2018-07-15T12:57:37.029Z,93340.36
2018-07-15T13:00:06.049Z,93337.84
2018-07-15T13:02:34.541Z,93339.91
2018-07-15T13:05:03.094Z,93336.72
2018-07-15T13:07:31.719Z,93330.84
2018-07-15T13:10:00.472Z,93322.27
2018-07-15T13:12:29.234Z,93325.21
2018-07-15T13:14:57.629Z,93320.68
2018-07-15T13:17:26.010Z,93325.04
2018-07-15T13:19:55.098Z,93323.14
2018-07-15T13:22:23.803Z,93322.30
2018-07-15T13:24:52.530Z,93318.23
2018-07-15T13:27:21.261Z,93320.09
2018-07-15T13:29:50.121Z,93312.31
2018-07-15T13:32:18.510Z,93313.44
2018-07-15T13:34:47.819Z,93299.17
2018-07-15T13:37:16.359Z,93310.88
2018-07-15T13:39:45.884Z,93303.45
2018-07-15T13:42:14.429Z,93311.57
2018-07-15T13:44:42.929Z,93299.66
2018-07-15T13:47:11.487Z,93301.13
2018-07-15T13:49:40.334Z,93293.50
2018-07-15T13:52:09.814Z,93304.36
2018-07-15T13:54:38.387Z,93305.64
2018-07-15T13:57:06.877Z,93302.04
2018-07-15T13:59:35.309Z,93296.06
2018-07-15T14:02:03.804Z,93299.73
2018-07-15T14:04:32.102Z,93298.01
2018-07-15T14:07:00.445Z,93297.22
2018-07-15T14:09:28.835Z,93298.44
2018-07-15T14:11:57.876Z,93299.08
2018-07-15T14:14:26.426Z,93283.36
2018-07-15T14:16:54.912Z,93278.72
2018-07-15T14:19:23.317Z,93287.22
2018-07-15T14:21:51.644Z,93283.52
2018-07-15T14:24:19.988Z,93281.27
2018-07-15T14:26:48.312Z,93279.13
2018-07-15T14:29:16.638Z,93273.06
2018-07-15T14:31:45.010Z,93274.59
2018-07-15T14:34:13.484Z,93271.92
2018-07-15T14:36:41.944Z,93271.73
2018-07-15T14:39:10.203Z,93270.30
2018-07-15T14:41:38.842Z,93272.89
2018-07-15T14:44:07.200Z,93267.33
2018-07-15T14:46:35.417Z,93266.19
2018-07-15T14:49:04.016Z,93266.41
2018-07-15T14:51:32.346Z,93268.55
2018-07-15T14:54:00.702Z,93266.09
2018-07-15T14:56:29.106Z,93263.63
2018-07-15T14:58:57.469Z,93265.87
2018-07-15T15:01:25.733Z,93267.20
2018-07-15T15:03:54.447Z,93265.27
2018-07-15T15:06:22.799Z,93260.44
2018-07-15T15:08:51.222Z,93263.83
2018-07-15T15:11:19.929Z,93261.56
2018-07-15T15:13:48.705Z,93261.66
2018-07-15T15:16:17.329Z,93262.38
2018-07-15T15:18:45.820Z,93255.59
2018-07-15T15:21:14.107Z,93257.75
2018-07-15T15:23:42.712Z,93252.20
2018-07-15T15:26:11.345Z,93254.87
2018-07-15T15:28:39.843Z,93255.31
2018-07-15T15:31:08.738Z,93257.48
2018-07-15T15:33:37.408Z,93249.56
2018-07-15T15:36:06.137Z,93250.48
2018-07-15T15:38:34.545Z,93246.88
2018-07-15T15:41:03.233Z,93248.52
2018-07-15T15:43:31.651Z,93250.36
2018-07-15T15:46:00.547Z,93244.70
2018-07-15T15:48:29.098Z,93240.52
2018-07-15T15:50:57.661Z,93246.66
2018-07-15T15:53:26.026Z,93247.70
2018-07-15T15:55:54.499Z,93254.05
2018-07-15T15:58:22.780Z,93251.25
2018-07-15T16:00:51.125Z,93246.80
2018-07-15T16:03:19.448Z,93243.90
2018-07-15T16:05:47.809Z,93246.70
2018-07-15T16:08:16.081Z,93246.53
2018-07-15T16:10:44.559Z,93251.48
2018-07-15T16:13:12.939Z,93245.91
2018-07-15T16:15:41.405Z,93250.34
2018-07-15T16:18:09.571Z,93245.94
2018-07-15T16:20:38.081Z,93241.97
2018-07-15T16:23:07.223Z,93249.08
2018-07-15T16:25:35.834Z,93251.48
2018-07-15T16:28:04.306Z,93254.66
2018-07-15T16:30:32.606Z,93250.63
2018-07-15T16:33:00.881Z,93248.05
2018-07-15T16:35:29.167Z,93246.41
2018-07-15T16:37:57.436Z,93241.98
2018-07-15T16:40:25.822Z,93247.37
2018-07-15T16:42:53.921Z,93244.03
2018-07-15T16:45:22.020Z,93242.77
2018-07-15T16:47:50.362Z,93240.80
2018-07-15T16:50:18.653Z,93247.41
2018-07-15T16:52:46.865Z,93253.78
2018-07-15T16:55:15.022Z,93253.53
2018-07-15T16:57:43.340Z,93256.02
2018-07-15T17:00:11.595Z,93260.45
2018-07-15T17:02:39.841Z,93260.91
2018-07-15T17:05:07.953Z,93259.92
2018-07-15T17:07:36.252Z,93272.07
2018-07-15T17:10:04.673Z,93266.87
2018-07-15T17:12:32.862Z,93266.11
2018-07-15T17:15:01.061Z,93262.36
2018-07-15T17:17:29.289Z,93256.84
2018-07-15T17:19:57.558Z,93262.30
2018-07-15T17:22:25.730Z,93259.21
2018-07-15T17:24:53.873Z,93252.21
2018-07-15T17:27:22.073Z,93255.01
2018-07-15T17:29:50.270Z,93257.45
2018-07-15T17:32:18.501Z,93260.15
2018-07-15T17:34:46.717Z,93262.09
2018-07-15T17:37:15.212Z,93260.67
2018-07-15T17:39:43.425Z,93264.05
2018-07-15T17:42:11.618Z,93262.09
2018-07-15T17:44:39.749Z,93263.14
2018-07-15T17:47:08.167Z,93260.67
2018-07-15T17:49:36.261Z,93269.44
2018-07-15T17:52:04.540Z,93270.11
2018-07-15T17:54:32.873Z,93281.97
2018-07-15T17:57:01.100Z,93281.00
2018-07-15T17:59:29.201Z,93281.17
2018-07-15T18:01:57.494Z,93274.91
2018-07-15T18:04:25.724Z,93273.75
2018-07-15T18:06:53.922Z,93286.59
2018-07-15T18:09:22.163Z,93288.39
2018-07-15T18:11:50.438Z,93281.59
2018-07-15T18:14:18.816Z,93281.59
2018-07-15T18:16:47.067Z,93278.04
2018-07-15T18:19:15.283Z,93274.70
2018-07-15T18:21:43.490Z,93286.56
2018-07-15T18:24:11.904Z,93289.67
2018-07-15T18:26:40.279Z,93297.89
2018-07-15T18:29:08.483Z,93294.72
2018-07-15T18:31:36.722Z,93302.25
2018-07-15T18:34:04.888Z,93291.81
2018-07-15T18:36:33.014Z,93290.94
2018-07-15T18:39:01.402Z,93297.64
2018-07-15T18:41:29.988Z,93298.28
2018-07-15T18:43:58.320Z,93301.48
2018-07-15T18:46:26.601Z,93309.89
2018-07-15T18:48:54.828Z,93307.23
2018-07-15T18:51:23.204Z,93309.16
2018-07-15T18:53:51.401Z,93313.59
2018-07-15T18:56:19.573Z,93311.89
2018-07-15T18:58:47.929Z,93313.69
2018-07-15T19:01:16.203Z,93323.41
2018-07-15T19:03:44.440Z,93320.84
2018-07-15T19:06:12.584Z,93322.41
2018-07-15T19:08:40.951Z,93324.33
2018-07-15T19:11:09.461Z,93328.91
2018-07-15T19:13:38.187Z,93328.08
2018-07-15T19:16:06.359Z,93335.84
2018-07-15T19:18:34.715Z,93329.34
2018-07-15T19:21:03.176Z,93341.13
2018-07-15T19:23:31.645Z,93343.59
2018-07-15T19:25:59.905Z,93343.76
2018-07-15T19:28:28.301Z,93340.45
2018-07-15T19:30:56.759Z,93347.03
2018-07-15T19:33:25.089Z,93346.47
2018-07-15T19:35:53.309Z,93349.92
2018-07-15T19:38:21.685Z,93345.13
2018-07-15T19:40:50.118Z,93354.30
2018-07-15T19:43:18.425Z,93354.63
2018-07-15T19:45:46.768Z,93356.11
2018-07-15T19:48:14.891Z,93354.30
2018-07-15T19:50:43.364Z,93354.34
2018-07-15T19:53:11.654Z,93361.31
2018-07-15T19:55:39.834Z,93360.31
2018-07-15T19:58:08.023Z,93362.66
2018-07-15T20:00:36.175Z,93370.56
2018-07-15T20:03:04.543Z,93368.59
2018-07-15T20:05:32.552Z,93373.08
2018-07-15T20:08:00.686Z,93376.25
2018-07-15T20:10:28.835Z,93375.14
2018-07-15T20:12:57.092Z,93372.19
2018-07-15T20:15:25.157Z,93366.38
2018-07-15T20:17:53.245Z,93367.34
2018-07-15T20:20:21.336Z,93364.19
2018-07-15T20:22:49.326Z,93365.00
2018-07-15T20:25:17.406Z,93358.96
2018-07-15T20:27:45.497Z,93362.27
2018-07-15T20:30:13.718Z,93369.45
2018-07-15T20:32:41.856Z,93358.75
2018-07-15T20:35:09.974Z,93359.89
2018-07-15T20:37:38.161Z,93361.70
2018-07-15T20:40:06.515Z,93360.73
2018-07-15T20:42:34.787Z,93351.49
2018-07-15T20:45:03.286Z,93358.07
2018-07-15T20:47:31.526Z,93355.80
2018-07-15T20:49:59.860Z,93346.91
2018-07-15T20:52:28.071Z,93343.12
2018-07-15T20:54:56.342Z,93346.97
2018-07-15T20:57:24.858Z,93353.70
2018-07-15T20:59:53.161Z,93345.41
2018-07-15T21:02:21.280Z,93356.19
2018-07-15T21:04:49.387Z,93356.44
2018-07-15T21:07:17.529Z,93356.65
2018-07-15T21:09:45.579Z,93357.58
2018-07-15T21:12:13.673Z,93367.28
2018-07-15T21:14:41.792Z,93353.80
2018-07-15T21:17:09.833Z,93352.63
2018-07-15T21:19:38.066Z,93346.23
2018-07-15T21:22:06.355Z,93347.69
2018-07-15T21:24:34.483Z,93353.09
2018-07-15T21:27:02.569Z,93366.86
2018-07-15T21:29:30.675Z,93380.88
2018-07-15T21:31:58.755Z,93372.45
2018-07-15T21:34:26.961Z,93364.02
2018-07-15T21:36:55.121Z,93367.10
2018-07-15T21:39:23.218Z,93371.69
2018-07-15T21:41:51.303Z,93368.02
2018-07-15T21:44:19.574Z,93370.33
2018-07-15T21:46:47.928Z,93376.23
2018-07-15T21:49:16.120Z,93372.61
2018-07-15T21:51:44.682Z,93371.75
2018-07-15T21:54:12.788Z,93382.64
2018-07-15T21:56:40.922Z,93380.18
2018-07-15T21:59:09.071Z,93377.65
2018-07-15T22:01:40.428Z,93379.15
2018-07-15T22:04:09.040Z,93378.80
2018-07-15T22:06:48.195Z,93370.22
2018-07-15T22:09:28.136Z,93372.22
2018-07-15T22:11:57.130Z,93377.65
2018-07-15T22:14:25.264Z,93372.03
2018-07-15T22:16:53.449Z,93371.53
2018-07-15T22:19:21.712Z,93374.06
2018-07-15T22:21:49.778Z,93373.60
2018-07-15T22:24:17.984Z,93372.75
2018-07-15T22:26:45.954Z,93367.31
2018-07-15T22:29:14.165Z,93376.70
2018-07-15T22:31:42.357Z,93372.99
2018-07-15T22:34:10.403Z,93364.04
2018-07-15T22:36:38.459Z,93362.66
2018-07-15T22:39:07.512Z,93360.87
2018-07-15T22:41:35.981Z,93362.98
2018-07-15T22:44:04.473Z,93353.75
2018-07-15T22:46:32.540Z,93355.93
2018-07-15T22:49:00.649Z,93355.20
2018-07-15T22:51:28.674Z,93357.29
2018-07-15T22:53:56.738Z,93354.16
2018-07-15T22:56:24.948Z,93351.39
2018-07-15T22:58:53.083Z,93368.42
2018-07-15T23:01:21.196Z,93377.84
2018-07-15T23:03:49.212Z,93374.75
2018-07-15T23:06:19.705Z,93381.17
2018-07-15T23:08:47.768Z,93379.01
2018-07-15T23:11:15.908Z,93382.04
2018-07-15T23:13:43.958Z,93381.56
2018-07-15T23:16:12.036Z,93380.55
2018-07-15T23:18:40.088Z,93387.64
2018-07-15T23:21:08.131Z,93385.55
2018-07-15T23:23:36.164Z,93376.23
2018-07-15T23:26:04.185Z,93380.73
2018-07-15T23:28:32.256Z,93376.98
2018-07-15T23:31:00.284Z,93376.92
2018-07-15T23:33:28.410Z,93379.48
2018-07-15T23:35:56.443Z,93371.51
2018-07-15T23:38:24.482Z,93373.05
2018-07-15T23:40:52.497Z,93373.44
2018-07-15T23:43:20.605Z,93367.23
2018-07-15T23:45:48.667Z,93364.50
2018-07-15T23:48:16.802Z,93357.19
2018-07-15T23:50:44.891Z,93365.67
2018-07-15T23:53:12.881Z,93369.28
2018-07-15T23:55:40.874Z,93369.79
2018-07-15T23:58:08.961Z,93370.77
